createdAt,value
2023-02-28T00:00:36.957Z,100.00
2023-02-28T00:03:04.455Z,100.00
2023-02-28T00:05:32.082Z,100.00
2023-02-28T00:07:59.344Z,100.00
2023-02-28T00:10:28.271Z,100.00
2023-02-28T00:13:04.362Z,100.00
2023-02-28T00:15:31.995Z,100.00
2023-02-28T00:17:59.596Z,100.00
2023-02-28T00:20:27.778Z,100.00
2023-02-28T00:22:55.514Z,100.00
2023-02-28T00:25:24.721Z,100.00
2023-02-28T00:27:52.204Z,100.00
2023-02-28T00:30:21.025Z,100.00
2023-02-28T00:32:48.490Z,100.00
2023-02-28T00:35:15.784Z,100.00
2023-02-28T00:37:43.408Z,100.00
2023-02-28T00:40:12.430Z,100.00
2023-02-28T00:42:40.650Z,100.00
2023-02-28T00:45:09.289Z,100.00
2023-02-28T00:47:38.303Z,100.00
2023-02-28T00:50:06.840Z,100.00
2023-02-28T00:52:34.151Z,100.00
2023-02-28T00:55:01.418Z,100.00
2023-02-28T00:57:28.628Z,100.00
2023-02-28T00:59:55.843Z,100.00
2023-02-28T01:02:23.548Z,100.00
2023-02-28T01:04:52.646Z,100.00
2023-02-28T01:07:20.146Z,100.00
2023-02-28T01:09:47.427Z,100.00
2023-02-28T01:12:15.898Z,100.00
2023-02-28T01:14:43.928Z,100.00
2023-02-28T01:17:11.169Z,100.00
2023-02-28T01:19:40.405Z,100.00
2023-02-28T01:22:07.877Z,100.00
2023-02-28T01:24:35.234Z,100.00
2023-02-28T01:27:03.804Z,100.00
2023-02-28T01:29:31.041Z,100.00
2023-02-28T01:32:00.544Z,100.00
2023-02-28T01:34:27.824Z,100.00
2023-02-28T01:36:55.125Z,100.00
2023-02-28T01:39:22.629Z,100.00
2023-02-28T01:41:50.742Z,100.00
2023-02-28T01:44:55.441Z,100.00
2023-02-28T01:47:23.457Z,100.00
2023-02-28T01:49:52.516Z,100.00
2023-02-28T01:52:22.633Z,100.00
2023-02-28T01:54:52.593Z,100.00
2023-02-28T01:57:23.217Z,100.00
2023-02-28T01:59:59.808Z,100.00
2023-02-28T02:02:28.982Z,100.00
2023-02-28T02:05:10.748Z,100.00
2023-02-28T02:07:39.589Z,100.00
2023-02-28T02:10:33.083Z,100.00
2023-02-28T02:13:11.911Z,100.00
2023-02-28T02:15:59.141Z,100.00
2023-02-28T02:18:39.448Z,100.00
2023-02-28T02:21:09.518Z,100.00
2023-02-28T02:23:45.099Z,100.00
2023-02-28T02:26:12.211Z,100.00
2023-02-28T02:29:17.957Z,100.00
2023-02-28T02:32:03.825Z,100.00
2023-02-28T02:34:34.358Z,100.00
2023-02-28T02:37:02.229Z,100.00
2023-02-28T02:39:36.736Z,100.00
2023-02-28T02:42:06.395Z,100.00
2023-02-28T02:44:45.599Z,100.00
2023-02-28T02:47:15.840Z,100.00
2023-02-28T02:49:49.751Z,100.00
2023-02-28T02:52:19.768Z,100.00
2023-02-28T02:54:47.178Z,100.00
2023-02-28T02:57:17.685Z,100.00
2023-02-28T02:59:44.929Z,100.00
2023-02-28T03:02:13.703Z,100.00
2023-02-28T03:04:46.892Z,100.00
2023-02-28T03:07:14.452Z,100.00
2023-02-28T03:09:42.376Z,100.00
2023-02-28T03:12:12.237Z,100.00
2023-02-28T03:14:55.445Z,100.00
2023-02-28T03:17:31.798Z,100.00
2023-02-28T03:20:08.377Z,100.00
2023-02-28T03:23:03.621Z,100.00
2023-02-28T03:25:40.991Z,100.00
2023-02-28T03:28:47.437Z,100.00
2023-02-28T03:31:23.766Z,100.00
2023-02-28T03:34:01.207Z,100.00
2023-02-28T03:36:30.534Z,100.00
2023-02-28T03:39:07.644Z,100.00
2023-02-28T03:42:00.899Z,100.00
2023-02-28T03:44:52.351Z,100.00
2023-02-28T03:47:24.103Z,100.00
2023-02-28T03:50:00.586Z,100.00
2023-02-28T03:52:30.968Z,100.00
2023-02-28T03:55:03.691Z,100.00
2023-02-28T03:57:51.452Z,100.00
2023-02-28T04:00:27.612Z,100.00
2023-02-28T04:02:55.973Z,100.00
2023-02-28T04:05:24.530Z,100.00
2023-02-28T04:07:52.009Z,100.00
2023-02-28T04:10:19.261Z,100.00
2023-02-28T04:12:47.342Z,100.00
2023-02-28T04:15:14.688Z,100.00
2023-02-28T04:17:42.030Z,100.00
2023-02-28T04:20:10.759Z,100.00
2023-02-28T04:22:38.404Z,100.00
2023-02-28T04:25:06.819Z,100.00
2023-02-28T04:27:40.090Z,100.00
2023-02-28T04:30:08.009Z,100.00
2023-02-28T04:32:35.643Z,100.00
2023-02-28T04:35:03.633Z,100.00
2023-02-28T04:37:31.054Z,100.00
2023-02-28T04:39:58.344Z,100.00
2023-02-28T04:42:25.550Z,100.00
2023-02-28T04:44:52.741Z,100.00
2023-02-28T04:47:19.951Z,100.00
2023-02-28T04:49:47.176Z,100.00
2023-02-28T04:52:14.543Z,100.00
2023-02-28T04:54:42.499Z,100.00
2023-02-28T04:57:09.849Z,100.00
2023-02-28T04:59:37.891Z,100.00
2023-02-28T05:02:08.002Z,100.00
2023-02-28T05:04:35.692Z,100.00
2023-02-28T05:07:04.047Z,100.00
2023-02-28T05:09:31.872Z,100.00
2023-02-28T05:12:00.421Z,100.00
2023-02-28T05:14:27.706Z,100.00
2023-02-28T05:16:55.086Z,100.00
2023-02-28T05:19:22.573Z,100.00
2023-02-28T05:21:56.102Z,100.00
2023-02-28T05:24:24.533Z,100.00
2023-02-28T05:26:53.584Z,100.00
2023-02-28T05:29:20.980Z,100.00
2023-02-28T05:31:48.831Z,100.00
2023-02-28T05:34:17.129Z,100.00
2023-02-28T05:36:44.742Z,100.00
2023-02-28T05:39:13.998Z,100.00
2023-02-28T05:41:43.555Z,100.00
2023-02-28T05:44:10.979Z,100.00
2023-02-28T05:46:39.262Z,100.00
2023-02-28T05:49:06.671Z,100.00
2023-02-28T05:51:35.299Z,100.00
2023-02-28T05:54:02.770Z,100.00
2023-02-28T05:56:30.444Z,100.00
2023-02-28T05:58:58.106Z,100.00
2023-02-28T06:01:32.875Z,100.00
2023-02-28T06:04:01.662Z,100.00
2023-02-28T06:06:30.518Z,100.00
2023-02-28T06:08:58.355Z,100.00
2023-02-28T06:11:28.637Z,100.00
2023-02-28T06:13:57.674Z,100.00
2023-02-28T06:16:26.220Z,100.00
2023-02-28T06:18:57.216Z,100.00
2023-02-28T06:21:24.964Z,100.00
2023-02-28T06:23:52.301Z,100.00
2023-02-28T06:26:20.488Z,100.00
2023-02-28T06:28:49.034Z,100.00
2023-02-28T06:31:17.515Z,100.00
2023-02-28T06:33:45.722Z,100.00
2023-02-28T06:36:16.082Z,100.00
2023-02-28T06:38:43.677Z,100.00
2023-02-28T06:41:11.195Z,100.00
2023-02-28T06:43:40.806Z,100.00
2023-02-28T06:46:09.510Z,100.00
2023-02-28T06:48:37.068Z,100.00
2023-02-28T06:51:08.297Z,100.00
2023-02-28T06:53:35.668Z,100.00
2023-02-28T06:56:10.305Z,100.00
2023-02-28T06:58:38.559Z,100.00
2023-02-28T07:01:10.060Z,100.00
2023-02-28T07:03:38.460Z,100.00
2023-02-28T07:06:06.151Z,100.00
2023-02-28T07:08:34.862Z,100.00
2023-02-28T07:11:02.240Z,100.00
2023-02-28T07:13:29.580Z,100.00
2023-02-28T07:16:00.903Z,100.00
2023-02-28T07:18:28.683Z,100.00
2023-02-28T07:20:57.164Z,100.00
2023-02-28T07:23:25.388Z,100.00
2023-02-28T07:25:53.332Z,100.00
2023-02-28T07:28:20.738Z,100.00
2023-02-28T07:30:49.166Z,100.00
2023-02-28T07:33:16.581Z,100.00
2023-02-28T07:35:43.908Z,100.00
2023-02-28T07:38:14.617Z,100.00
2023-02-28T07:40:41.817Z,100.00
2023-02-28T07:43:09.126Z,100.00
2023-02-28T07:45:37.415Z,100.00
2023-02-28T07:48:06.766Z,100.00
2023-02-28T07:50:35.677Z,100.00
2023-02-28T07:53:03.049Z,100.00
2023-02-28T07:55:33.451Z,100.00
2023-02-28T07:58:00.733Z,100.00
2023-02-28T08:00:28.134Z,100.00
2023-02-28T08:02:55.568Z,100.00
2023-02-28T08:05:23.126Z,100.00
2023-02-28T08:07:50.762Z,100.00
2023-02-28T08:10:18.698Z,100.00
2023-02-28T08:12:45.982Z,100.00
2023-02-28T08:15:13.251Z,100.00
2023-02-28T08:17:40.583Z,100.00
2023-02-28T08:20:09.945Z,100.00
2023-02-28T08:22:39.148Z,100.00
2023-02-28T08:25:08.151Z,100.00
2023-02-28T08:27:36.263Z,100.00
2023-02-28T08:30:04.699Z,100.00
2023-02-28T08:32:33.665Z,100.00
2023-02-28T08:35:04.028Z,100.00
2023-02-28T08:37:31.625Z,100.00
2023-02-28T08:40:00.589Z,100.00
2023-02-28T08:42:27.915Z,100.00
2023-02-28T08:44:55.444Z,100.00
2023-02-28T08:47:22.823Z,100.00
2023-02-28T08:49:50.099Z,100.00
2023-02-28T08:52:17.434Z,100.00
2023-02-28T08:54:44.647Z,100.00
2023-02-28T08:57:11.883Z,100.00
2023-02-28T08:59:39.556Z,100.00
2023-02-28T09:02:07.197Z,100.00
2023-02-28T09:04:35.072Z,100.00
2023-02-28T09:07:02.266Z,100.00
2023-02-28T09:09:30.981Z,100.00
2023-02-28T09:11:58.239Z,100.00
2023-02-28T09:14:28.337Z,100.00
2023-02-28T09:16:56.004Z,100.00
2023-02-28T09:19:23.465Z,100.00
2023-02-28T09:21:50.960Z,100.00
2023-02-28T09:24:19.164Z,100.00
2023-02-28T09:26:56.826Z,100.00
2023-02-28T09:29:32.526Z,100.00
2023-02-28T09:32:00.765Z,100.00
2023-02-28T09:34:31.985Z,100.00
2023-02-28T09:36:59.351Z,100.00
2023-02-28T09:39:27.838Z,100.00
2023-02-28T09:41:56.356Z,100.00
2023-02-28T09:44:34.084Z,100.00
2023-02-28T09:47:34.466Z,100.00
2023-02-28T09:50:30.846Z,100.00
2023-02-28T09:52:58.131Z,100.00
2023-02-28T09:55:46.937Z,100.00
2023-02-28T09:58:22.749Z,100.00
2023-02-28T10:01:03.556Z,100.00
2023-02-28T10:03:37.956Z,100.00
2023-02-28T10:06:26.680Z,100.00
2023-02-28T10:09:04.516Z,100.00
2023-02-28T10:11:34.126Z,100.00
2023-02-28T10:14:12.018Z,100.00
2023-02-28T10:16:47.499Z,100.00
2023-02-28T10:19:16.320Z,100.00
2023-02-28T10:22:04.705Z,100.00
2023-02-28T10:24:36.035Z,100.00
2023-02-28T10:27:13.768Z,100.00
2023-02-28T10:29:43.574Z,100.00
2023-02-28T10:32:12.350Z,100.00
2023-02-28T10:34:39.766Z,100.00
2023-02-28T10:37:10.069Z,100.00
2023-02-28T10:39:39.564Z,100.00
2023-02-28T10:42:07.684Z,100.00
2023-02-28T10:44:35.004Z,100.00
2023-02-28T10:47:02.364Z,100.00
2023-02-28T10:49:30.189Z,100.00
2023-02-28T10:51:59.305Z,100.00
2023-02-28T10:54:38.716Z,100.00
2023-02-28T10:57:23.079Z,100.00
2023-02-28T10:59:55.942Z,100.00
2023-02-28T11:02:37.434Z,100.00
2023-02-28T11:05:23.149Z,100.00
2023-02-28T11:08:08.082Z,100.00
2023-02-28T11:10:35.897Z,100.00
2023-02-28T11:13:04.587Z,100.00
2023-02-28T11:15:35.393Z,100.00
2023-02-28T11:18:21.380Z,100.00
2023-02-28T11:20:50.134Z,100.00
2023-02-28T11:23:17.454Z,100.00
2023-02-28T11:25:51.708Z,100.00
2023-02-28T11:28:51.324Z,100.00
2023-02-28T11:31:20.418Z,100.00
2023-02-28T11:33:54.699Z,100.00
2023-02-28T11:36:32.496Z,100.00
2023-02-28T11:39:10.350Z,100.00
2023-02-28T11:42:16.647Z,100.00
2023-02-28T11:44:56.846Z,100.00
2023-02-28T11:47:28.244Z,100.00
2023-02-28T11:50:13.955Z,100.00
2023-02-28T11:52:55.794Z,100.00
2023-02-28T11:55:40.656Z,100.00
2023-02-28T11:58:26.188Z,100.00
2023-02-28T12:01:18.195Z,100.00
2023-02-28T12:03:57.486Z,100.00
2023-02-28T12:06:33.196Z,98.25
2023-02-28T12:09:07.531Z,98.70
2023-02-28T12:11:40.997Z,99.69
2023-02-28T12:14:31.837Z,96.44
2023-02-28T12:17:05.766Z,96.99
2023-02-28T12:19:52.387Z,99.55
2023-02-28T12:22:58.344Z,100.00
2023-02-28T12:25:31.136Z,100.00
2023-02-28T12:27:58.984Z,100.00
2023-02-28T12:30:34.192Z,97.91
2023-02-28T12:33:13.417Z,97.28
2023-02-28T12:35:52.216Z,95.24
2023-02-28T12:38:24.729Z,98.01
2023-02-28T12:40:58.103Z,96.73
2023-02-28T12:43:28.465Z,95.83
2023-02-28T12:46:20.734Z,97.97
2023-02-28T12:48:53.750Z,94.84
2023-02-28T12:51:21.141Z,95.17
2023-02-28T12:54:04.635Z,96.04
2023-02-28T12:57:05.008Z,96.91
2023-02-28T12:59:43.078Z,96.69
2023-02-28T13:02:29.443Z,97.83
2023-02-28T13:05:38.632Z,98.11
2023-02-28T13:08:19.040Z,97.85
2023-02-28T13:10:47.716Z,97.69
2023-02-28T13:13:19.853Z,97.81
2023-02-28T13:16:00.156Z,94.63
2023-02-28T13:18:31.598Z,94.22
2023-02-28T13:20:58.979Z,88.92
2023-02-28T13:23:39.677Z,88.40
2023-02-28T13:26:07.002Z,87.89
2023-02-28T13:28:49.559Z,93.14
2023-02-28T13:31:18.214Z,92.99
2023-02-28T13:33:46.054Z,90.00
2023-02-28T13:36:16.386Z,90.08
2023-02-28T13:38:48.929Z,86.11
2023-02-28T13:41:35.333Z,83.25
2023-02-28T13:44:27.442Z,77.38
2023-02-28T13:46:54.767Z,69.92
2023-02-28T13:49:34.894Z,75.69
2023-02-28T13:52:09.640Z,66.38
2023-02-28T13:54:52.037Z,61.44
2023-02-28T13:57:56.973Z,64.38
2023-02-28T14:00:48.237Z,72.40
2023-02-28T14:03:27.951Z,68.82
2023-02-28T14:06:17.082Z,74.27
2023-02-28T14:08:57.982Z,81.53
2023-02-28T14:11:32.486Z,76.23
2023-02-28T14:14:00.022Z,79.09
2023-02-28T14:16:31.065Z,73.33
2023-02-28T14:19:04.800Z,77.68
2023-02-28T14:21:35.238Z,81.96
2023-02-28T14:24:40.794Z,80.02
2023-02-28T14:27:30.872Z,85.59
2023-02-28T14:30:16.829Z,87.92
2023-02-28T14:33:23.137Z,92.67
2023-02-28T14:36:02.096Z,93.11
2023-02-28T14:38:56.135Z,87.96
2023-02-28T14:41:24.887Z,86.37
2023-02-28T14:43:54.704Z,88.36
2023-02-28T14:46:22.456Z,90.36
2023-02-28T14:48:50.583Z,89.55
2023-02-28T14:51:22.621Z,89.89
2023-02-28T14:53:52.274Z,94.35
2023-02-28T14:56:24.861Z,96.11
2023-02-28T14:58:53.657Z,96.68
2023-02-28T15:01:24.056Z,99.24
2023-02-28T15:04:26.122Z,100.00
2023-02-28T15:07:14.184Z,100.00
2023-02-28T15:09:41.788Z,100.00
2023-02-28T15:12:09.068Z,100.00
2023-02-28T15:14:37.293Z,100.00
2023-02-28T15:17:09.788Z,100.00
2023-02-28T15:19:41.910Z,100.00
2023-02-28T15:22:14.456Z,99.93
2023-02-28T15:24:43.659Z,99.83
2023-02-28T15:27:41.625Z,99.46
2023-02-28T15:30:13.369Z,99.95
2023-02-28T15:32:41.000Z,100.00
2023-02-28T15:35:19.992Z,100.00
2023-02-28T15:37:49.364Z,100.00
2023-02-28T15:40:28.925Z,100.00
2023-02-28T15:43:16.597Z,100.00
2023-02-28T15:45:47.693Z,100.00
2023-02-28T15:48:23.058Z,99.50
2023-02-28T15:50:55.240Z,100.00
2023-02-28T15:53:29.244Z,100.00
2023-02-28T15:56:05.271Z,100.00
2023-02-28T15:58:33.825Z,100.00
2023-02-28T16:01:34.241Z,100.00
2023-02-28T16:04:03.424Z,100.00
2023-02-28T16:06:45.491Z,100.00
2023-02-28T16:09:14.870Z,100.00
2023-02-28T16:11:44.597Z,100.00
2023-02-28T16:14:20.086Z,100.00
2023-02-28T16:16:50.139Z,100.00
2023-02-28T16:19:17.810Z,100.00
2023-02-28T16:21:45.577Z,100.00
2023-02-28T16:24:12.871Z,100.00
2023-02-28T16:26:41.042Z,100.00
2023-02-28T16:29:08.305Z,100.00
2023-02-28T16:31:36.717Z,100.00
2023-02-28T16:34:05.433Z,100.00
2023-02-28T16:36:32.863Z,100.00
2023-02-28T16:39:00.695Z,100.00
2023-02-28T16:41:28.888Z,100.00
2023-02-28T16:44:01.381Z,100.00
2023-02-28T16:46:32.630Z,100.00
2023-02-28T16:48:59.988Z,100.00
2023-02-28T16:51:28.331Z,100.00
2023-02-28T16:53:55.712Z,100.00
2023-02-28T16:56:24.370Z,100.00
2023-02-28T16:58:51.576Z,100.00
2023-02-28T17:01:22.975Z,100.00
2023-02-28T17:03:50.728Z,100.00
2023-02-28T17:06:23.302Z,100.00
2023-02-28T17:08:51.254Z,100.00
2023-02-28T17:11:18.939Z,100.00
2023-02-28T17:13:46.334Z,100.00
2023-02-28T17:16:34.589Z,100.00
2023-02-28T17:19:06.189Z,100.00
2023-02-28T17:21:35.193Z,100.00
2023-02-28T17:24:02.421Z,100.00
2023-02-28T17:26:30.228Z,100.00
2023-02-28T17:28:58.000Z,100.00
2023-02-28T17:31:25.988Z,100.00
2023-02-28T17:33:54.036Z,100.00
2023-02-28T17:36:26.920Z,100.00
2023-02-28T17:38:56.117Z,100.00
2023-02-28T17:41:23.506Z,100.00
2023-02-28T17:43:51.961Z,100.00
2023-02-28T17:46:21.700Z,100.00
2023-02-28T17:48:49.598Z,100.00
2023-02-28T17:51:17.293Z,100.00
2023-02-28T17:53:45.028Z,100.00
2023-02-28T17:56:22.745Z,100.00
2023-02-28T17:58:50.117Z,100.00
2023-02-28T18:01:17.689Z,100.00
2023-02-28T18:03:44.963Z,100.00
2023-02-28T18:06:22.024Z,100.00
2023-02-28T18:08:52.324Z,100.00
2023-02-28T18:11:24.264Z,100.00
2023-02-28T18:13:53.235Z,100.00
2023-02-28T18:16:21.927Z,100.00
2023-02-28T18:18:49.564Z,100.00
2023-02-28T18:21:17.005Z,100.00
2023-02-28T18:23:50.144Z,100.00
2023-02-28T18:26:18.127Z,100.00
2023-02-28T18:28:45.804Z,100.00
2023-02-28T18:31:16.089Z,100.00
2023-02-28T18:33:44.245Z,100.00
2023-02-28T18:36:11.541Z,100.00
2023-02-28T18:38:40.247Z,100.00
2023-02-28T18:41:11.844Z,100.00
2023-02-28T18:43:39.154Z,100.00
2023-02-28T18:46:11.451Z,100.00
2023-02-28T18:48:41.505Z,100.00
2023-02-28T18:51:16.685Z,100.00
2023-02-28T18:53:44.416Z,100.00
2023-02-28T18:56:13.468Z,100.00
2023-02-28T18:58:41.047Z,100.00
2023-02-28T19:01:30.129Z,100.00
2023-02-28T19:04:02.031Z,100.00
2023-02-28T19:06:33.877Z,100.00
2023-02-28T19:09:02.328Z,100.00
2023-02-28T19:11:30.281Z,100.00
2023-02-28T19:14:02.714Z,100.00
2023-02-28T19:16:31.121Z,100.00
2023-02-28T19:18:58.872Z,100.00
2023-02-28T19:21:27.217Z,100.00
2023-02-28T19:23:54.450Z,100.00
2023-02-28T19:26:23.285Z,100.00
2023-02-28T19:28:50.534Z,100.00
2023-02-28T19:31:22.592Z,100.00
2023-02-28T19:33:52.850Z,100.00
2023-02-28T19:36:20.657Z,100.00
2023-02-28T19:38:48.198Z,100.00
2023-02-28T19:41:16.187Z,100.00
2023-02-28T19:43:43.568Z,100.00
2023-02-28T19:46:11.986Z,100.00
2023-02-28T19:48:39.566Z,100.00
2023-02-28T19:51:11.060Z,100.00
2023-02-28T19:53:38.851Z,100.00
2023-02-28T19:56:06.544Z,100.00
2023-02-28T19:58:34.194Z,100.00
2023-02-28T20:01:21.808Z,100.00
2023-02-28T20:03:49.784Z,100.00
2023-02-28T20:06:17.213Z,100.00
2023-02-28T20:08:44.549Z,100.00
2023-02-28T20:11:17.293Z,100.00
2023-02-28T20:13:44.684Z,100.00
2023-02-28T20:16:12.421Z,100.00
2023-02-28T20:18:39.985Z,100.00
2023-02-28T20:21:11.210Z,100.00
2023-02-28T20:23:40.065Z,100.00
2023-02-28T20:26:07.740Z,100.00
2023-02-28T20:28:34.977Z,100.00
2023-02-28T20:31:02.665Z,100.00
2023-02-28T20:33:30.153Z,100.00
2023-02-28T20:36:01.709Z,100.00
2023-02-28T20:38:29.439Z,100.00
2023-02-28T20:41:00.381Z,100.00
2023-02-28T20:43:30.097Z,100.00
2023-02-28T20:45:58.501Z,100.00
2023-02-28T20:48:26.792Z,100.00
2023-02-28T20:50:55.956Z,100.00
2023-02-28T20:53:24.295Z,100.00
2023-02-28T20:55:55.587Z,100.00
2023-02-28T20:58:24.332Z,100.00
2023-02-28T21:00:52.017Z,100.00
2023-02-28T21:03:19.775Z,100.00
2023-02-28T21:05:47.136Z,100.00
2023-02-28T21:08:17.788Z,100.00
2023-02-28T21:10:46.435Z,100.00
2023-02-28T21:13:13.849Z,100.00
2023-02-28T21:15:41.118Z,100.00
2023-02-28T21:18:09.060Z,100.00
2023-02-28T21:20:36.744Z,100.00
2023-02-28T21:23:06.658Z,100.00
2023-02-28T21:25:35.460Z,100.00
2023-02-28T21:28:03.894Z,100.00
2023-02-28T21:30:31.790Z,100.00
2023-02-28T21:32:59.279Z,100.00
2023-02-28T21:35:27.107Z,100.00
2023-02-28T21:37:54.383Z,100.00
2023-02-28T21:40:22.816Z,100.00
2023-02-28T21:42:50.208Z,100.00
2023-02-28T21:45:17.476Z,100.00
2023-02-28T21:47:45.346Z,100.00
2023-02-28T21:50:12.575Z,100.00
2023-02-28T21:52:40.052Z,100.00
2023-02-28T21:55:07.785Z,100.00
2023-02-28T21:57:36.066Z,100.00
2023-02-28T22:00:04.675Z,100.00
2023-02-28T22:02:32.041Z,100.00
2023-02-28T22:05:03.533Z,100.00
2023-02-28T22:07:31.175Z,100.00
2023-02-28T22:10:01.960Z,100.00
2023-02-28T22:12:30.767Z,100.00
2023-02-28T22:14:58.004Z,100.00
2023-02-28T22:17:25.239Z,100.00
2023-02-28T22:19:52.555Z,100.00
2023-02-28T22:22:24.042Z,100.00
2023-02-28T22:24:51.306Z,100.00
2023-02-28T22:27:18.632Z,100.00
2023-02-28T22:29:47.442Z,100.00
2023-02-28T22:32:15.377Z,100.00
2023-02-28T22:34:42.851Z,100.00
2023-02-28T22:37:10.034Z,100.00
2023-02-28T22:39:37.254Z,100.00
2023-02-28T22:42:04.526Z,100.00
2023-02-28T22:44:36.549Z,100.00
2023-02-28T22:47:03.923Z,100.00
2023-02-28T22:49:31.406Z,100.00
2023-02-28T22:51:58.619Z,100.00
2023-02-28T22:54:25.907Z,100.00
2023-02-28T22:56:53.123Z,100.00
2023-02-28T22:59:20.402Z,100.00
2023-02-28T23:01:47.789Z,100.00
2023-02-28T23:04:15.351Z,100.00
2023-02-28T23:06:43.188Z,100.00
2023-02-28T23:09:15.436Z,100.00
2023-02-28T23:11:46.238Z,100.00
2023-02-28T23:14:15.900Z,100.00
2023-02-28T23:16:45.126Z,100.00
2023-02-28T23:19:33.765Z,100.00
2023-02-28T23:22:01.675Z,100.00
2023-02-28T23:24:31.223Z,100.00
2023-02-28T23:27:01.961Z,100.00
2023-02-28T23:29:29.524Z,100.00
2023-02-28T23:31:56.926Z,100.00
2023-02-28T23:34:28.422Z,100.00
2023-02-28T23:36:56.577Z,100.00
2023-02-28T23:39:24.124Z,100.00
2023-02-28T23:41:53.220Z,100.00
2023-02-28T23:44:20.566Z,100.00
2023-02-28T23:46:49.473Z,100.00
2023-02-28T23:49:19.979Z,100.00
2023-02-28T23:51:49.382Z,100.00
2023-02-28T23:54:17.567Z,100.00
2023-02-28T23:56:45.461Z,100.00
2023-02-28T23:59:17.498Z,100.00
